sensor_id;sensor_type;location;lat;lon;timestamp;temperature;humidity
7046;DHT22;3564;53.326;10.356;2022-09-13T00:00:34;20.10;96.60
7046;DHT22;3564;53.326;10.356;2022-09-13T00:03:00;20.00;96.90
7046;DHT22;3564;53.326;10.356;2022-09-13T00:05:28;20.00;96.70
7046;DHT22;3564;53.326;10.356;2022-09-13T00:07:54;20.00;96.80
7046;DHT22;3564;53.326;10.356;2022-09-13T00:10:21;20.00;96.50
7046;DHT22;3564;53.326;10.356;2022-09-13T00:12:47;20.00;96.50
7046;DHT22;3564;53.326;10.356;2022-09-13T00:15:16;20.00;96.60
7046;DHT22;3564;53.326;10.356;2022-09-13T00:17:42;20.10;96.60
7046;DHT22;3564;53.326;10.356;2022-09-13T00:20:08;20.10;96.90
7046;DHT22;3564;53.326;10.356;2022-09-13T00:22:34;20.10;97.20
7046;DHT22;3564;53.326;10.356;2022-09-13T00:25:00;20.10;97.60
7046;DHT22;3564;53.326;10.356;2022-09-13T00:27:26;20.10;97.70
7046;DHT22;3564;53.326;10.356;2022-09-13T00:29:52;20.10;97.80
7046;DHT22;3564;53.326;10.356;2022-09-13T00:32:17;20.10;97.90
7046;DHT22;3564;53.326;10.356;2022-09-13T00:34:43;20.10;98.30
7046;DHT22;3564;53.326;10.356;2022-09-13T00:37:08;20.00;97.90
7046;DHT22;3564;53.326;10.356;2022-09-13T00:39:35;20.00;98.00
7046;DHT22;3564;53.326;10.356;2022-09-13T00:42:01;20.00;98.00
7046;DHT22;3564;53.326;10.356;2022-09-13T00:49:59;20.00;97.90
7046;DHT22;3564;53.326;10.356;2022-09-13T00:52:28;20.00;97.90
7046;DHT22;3564;53.326;10.356;2022-09-13T00:55:05;19.90;97.90
7046;DHT22;3564;53.326;10.356;2022-09-13T00:57:33;19.90;97.80
7046;DHT22;3564;53.326;10.356;2022-09-13T01:00:12;19.90;97.50
7046;DHT22;3564;53.326;10.356;2022-09-13T01:03:11;19.90;97.10
7046;DHT22;3564;53.326;10.356;2022-09-13T01:05:46;19.90;97.20
7046;DHT22;3564;53.326;10.356;2022-09-13T01:08:33;19.90;97.00
7046;DHT22;3564;53.326;10.356;2022-09-13T01:11:32;19.90;96.90
7046;DHT22;3564;53.326;10.356;2022-09-13T01:14:10;19.90;97.00
7046;DHT22;3564;53.326;10.356;2022-09-13T01:16:36;19.80;97.00
7046;DHT22;3564;53.326;10.356;2022-09-13T01:19:02;19.80;97.10
7046;DHT22;3564;53.326;10.356;2022-09-13T01:27:18;19.90;97.50
7046;DHT22;3564;53.326;10.356;2022-09-13T01:41:48;19.70;99.90
7046;DHT22;3564;53.326;10.356;2022-09-13T01:55:39;19.50;99.90
7046;DHT22;3564;53.326;10.356;2022-09-13T02:01:11;19.50;99.90
7046;DHT22;3564;53.326;10.356;2022-09-13T02:04:02;19.50;99.90
7046;DHT22;3564;53.326;10.356;2022-09-13T02:06:41;19.50;99.90
7046;DHT22;3564;53.326;10.356;2022-09-13T02:09:16;19.50;99.90
7046;DHT22;3564;53.326;10.356;2022-09-13T02:11:48;19.50;99.90
7046;DHT22;3564;53.326;10.356;2022-09-13T02:14:17;19.50;99.90
7046;DHT22;3564;53.326;10.356;2022-09-13T02:17:12;19.50;99.90
7046;DHT22;3564;53.326;10.356;2022-09-13T02:22:34;19.40;99.90
7046;DHT22;3564;53.326;10.356;2022-09-13T02:25:22;19.30;99.90
7046;DHT22;3564;53.326;10.356;2022-09-13T02:27:53;19.20;99.90
7046;DHT22;3564;53.326;10.356;2022-09-13T02:30:23;19.20;99.90
7046;DHT22;3564;53.326;10.356;2022-09-13T02:33:04;19.20;99.90
7046;DHT22;3564;53.326;10.356;2022-09-13T02:35:35;19.20;99.90
7046;DHT22;3564;53.326;10.356;2022-09-13T02:38:13;19.20;99.90
7046;DHT22;3564;53.326;10.356;2022-09-13T02:41:06;19.20;99.90
7046;DHT22;3564;53.326;10.356;2022-09-13T02:43:39;19.10;99.90
7046;DHT22;3564;53.326;10.356;2022-09-13T02:54:22;19.10;99.90
7046;DHT22;3564;53.326;10.356;2022-09-13T02:56:58;19.00;99.90
7046;DHT22;3564;53.326;10.356;2022-09-13T02:59:25;19.00;99.90
7046;DHT22;3564;53.326;10.356;2022-09-13T03:02:13;18.90;99.90
7046;DHT22;3564;53.326;10.356;2022-09-13T03:04:39;18.90;99.90
7046;DHT22;3564;53.326;10.356;2022-09-13T03:07:12;18.90;99.90
7046;DHT22;3564;53.326;10.356;2022-09-13T03:09:45;18.90;99.90
7046;DHT22;3564;53.326;10.356;2022-09-13T03:12:45;18.90;99.90
7046;DHT22;3564;53.326;10.356;2022-09-13T03:24:07;19.00;99.90
7046;DHT22;3564;53.326;10.356;2022-09-13T03:26:55;19.00;99.90
7046;DHT22;3564;53.326;10.356;2022-09-13T03:37:17;19.10;99.90
7046;DHT22;3564;53.326;10.356;2022-09-13T03:39:58;19.00;99.90
7046;DHT22;3564;53.326;10.356;2022-09-13T03:42:48;19.00;99.90
7046;DHT22;3564;53.326;10.356;2022-09-13T03:45:37;19.00;99.90
7046;DHT22;3564;53.326;10.356;2022-09-13T03:48:05;19.00;99.90
7046;DHT22;3564;53.326;10.356;2022-09-13T03:50:32;18.90;99.90
7046;DHT22;3564;53.326;10.356;2022-09-13T03:53:02;19.00;99.90
7046;DHT22;3564;53.326;10.356;2022-09-13T03:55:31;19.00;99.90
7046;DHT22;3564;53.326;10.356;2022-09-13T03:57:57;19.00;99.90
7046;DHT22;3564;53.326;10.356;2022-09-13T04:00:23;19.00;99.90
7046;DHT22;3564;53.326;10.356;2022-09-13T04:02:48;19.00;99.90
7046;DHT22;3564;53.326;10.356;2022-09-13T04:05:15;19.00;99.90
7046;DHT22;3564;53.326;10.356;2022-09-13T04:07:41;19.00;99.90
7046;DHT22;3564;53.326;10.356;2022-09-13T04:10:08;19.00;99.90
7046;DHT22;3564;53.326;10.356;2022-09-13T04:12:34;19.10;99.90
7046;DHT22;3564;53.326;10.356;2022-09-13T04:15:00;19.00;99.90
7046;DHT22;3564;53.326;10.356;2022-09-13T04:17:26;19.00;99.90
7046;DHT22;3564;53.326;10.356;2022-09-13T04:19:51;19.00;99.90
7046;DHT22;3564;53.326;10.356;2022-09-13T04:22:17;19.10;99.90
7046;DHT22;3564;53.326;10.356;2022-09-13T04:25:03;19.10;99.90
7046;DHT22;3564;53.326;10.356;2022-09-13T04:27:29;19.10;99.90
7046;DHT22;3564;53.326;10.356;2022-09-13T04:29:55;19.00;99.90
7046;DHT22;3564;53.326;10.356;2022-09-13T04:32:20;19.10;99.90
7046;DHT22;3564;53.326;10.356;2022-09-13T04:34:46;19.10;99.90
7046;DHT22;3564;53.326;10.356;2022-09-13T04:37:12;19.10;99.90
7046;DHT22;3564;53.326;10.356;2022-09-13T04:39:37;19.20;99.90
7046;DHT22;3564;53.326;10.356;2022-09-13T04:42:03;19.20;99.90
7046;DHT22;3564;53.326;10.356;2022-09-13T04:44:29;19.20;99.90
7046;DHT22;3564;53.326;10.356;2022-09-13T04:46:55;19.20;99.90
7046;DHT22;3564;53.326;10.356;2022-09-13T04:49:21;19.20;99.90
7046;DHT22;3564;53.326;10.356;2022-09-13T04:51:47;19.20;99.90
7046;DHT22;3564;53.326;10.356;2022-09-13T04:54:13;19.20;99.90
7046;DHT22;3564;53.326;10.356;2022-09-13T04:56:39;19.20;99.90
7046;DHT22;3564;53.326;10.356;2022-09-13T04:59:05;19.20;99.90
7046;DHT22;3564;53.326;10.356;2022-09-13T05:01:31;19.10;99.90
7046;DHT22;3564;53.326;10.356;2022-09-13T05:03:57;19.10;99.90
7046;DHT22;3564;53.326;10.356;2022-09-13T05:06:22;19.10;99.90
7046;DHT22;3564;53.326;10.356;2022-09-13T05:08:50;19.00;99.90
7046;DHT22;3564;53.326;10.356;2022-09-13T05:11:18;19.00;99.90
7046;DHT22;3564;53.326;10.356;2022-09-13T05:13:48;19.00;99.90
7046;DHT22;3564;53.326;10.356;2022-09-13T05:16:17;18.90;99.90
7046;DHT22;3564;53.326;10.356;2022-09-13T05:18:42;18.80;99.90
7046;DHT22;3564;53.326;10.356;2022-09-13T05:21:08;18.70;99.90
7046;DHT22;3564;53.326;10.356;2022-09-13T05:23:33;18.70;99.90
7046;DHT22;3564;53.326;10.356;2022-09-13T05:26:02;18.80;99.90
7046;DHT22;3564;53.326;10.356;2022-09-13T05:28:29;18.70;99.90
7046;DHT22;3564;53.326;10.356;2022-09-13T05:31:03;18.70;99.90
7046;DHT22;3564;53.326;10.356;2022-09-13T05:33:31;18.60;99.90
7046;DHT22;3564;53.326;10.356;2022-09-13T05:35:57;18.60;99.90
7046;DHT22;3564;53.326;10.356;2022-09-13T05:38:24;18.70;99.90
7046;DHT22;3564;53.326;10.356;2022-09-13T05:40:58;18.70;99.90
7046;DHT22;3564;53.326;10.356;2022-09-13T05:43:25;18.70;99.90
7046;DHT22;3564;53.326;10.356;2022-09-13T05:46:00;18.80;99.90
7046;DHT22;3564;53.326;10.356;2022-09-13T05:48:26;18.70;99.90
7046;DHT22;3564;53.326;10.356;2022-09-13T05:50:51;18.70;99.90
7046;DHT22;3564;53.326;10.356;2022-09-13T05:53:17;18.70;99.90
7046;DHT22;3564;53.326;10.356;2022-09-13T05:55:42;18.70;99.90
7046;DHT22;3564;53.326;10.356;2022-09-13T05:58:08;18.80;99.90
7046;DHT22;3564;53.326;10.356;2022-09-13T06:00:33;18.80;99.90
7046;DHT22;3564;53.326;10.356;2022-09-13T06:02:59;18.90;99.90
7046;DHT22;3564;53.326;10.356;2022-09-13T06:05:25;18.80;99.90
7046;DHT22;3564;53.326;10.356;2022-09-13T06:07:50;18.80;99.90
7046;DHT22;3564;53.326;10.356;2022-09-13T06:10:16;18.80;99.90
7046;DHT22;3564;53.326;10.356;2022-09-13T06:12:42;18.70;99.90
7046;DHT22;3564;53.326;10.356;2022-09-13T06:15:08;18.80;99.90
7046;DHT22;3564;53.326;10.356;2022-09-13T06:17:33;18.70;99.90
7046;DHT22;3564;53.326;10.356;2022-09-13T06:19:59;18.80;99.90
7046;DHT22;3564;53.326;10.356;2022-09-13T06:22:24;18.80;99.90
7046;DHT22;3564;53.326;10.356;2022-09-13T06:24:50;18.70;99.90
7046;DHT22;3564;53.326;10.356;2022-09-13T06:27:15;18.70;99.90
7046;DHT22;3564;53.326;10.356;2022-09-13T06:29:41;18.80;99.90
7046;DHT22;3564;53.326;10.356;2022-09-13T06:32:06;18.80;99.90
7046;DHT22;3564;53.326;10.356;2022-09-13T06:34:32;18.70;99.90
7046;DHT22;3564;53.326;10.356;2022-09-13T06:36:58;18.80;99.90
7046;DHT22;3564;53.326;10.356;2022-09-13T06:39:23;18.80;99.90
7046;DHT22;3564;53.326;10.356;2022-09-13T06:41:49;18.80;99.90
7046;DHT22;3564;53.326;10.356;2022-09-13T06:44:15;18.80;99.90
7046;DHT22;3564;53.326;10.356;2022-09-13T06:46:41;18.80;99.90
7046;DHT22;3564;53.326;10.356;2022-09-13T06:49:08;18.90;99.90
7046;DHT22;3564;53.326;10.356;2022-09-13T06:51:34;18.90;99.90
7046;DHT22;3564;53.326;10.356;2022-09-13T06:54:00;18.80;99.90
7046;DHT22;3564;53.326;10.356;2022-09-13T06:56:32;18.90;99.90
7046;DHT22;3564;53.326;10.356;2022-09-13T06:59:01;18.80;99.90
7046;DHT22;3564;53.326;10.356;2022-09-13T07:01:35;18.80;99.90
7046;DHT22;3564;53.326;10.356;2022-09-13T07:04:02;18.80;99.90
7046;DHT22;3564;53.326;10.356;2022-09-13T07:06:30;18.80;99.90
7046;DHT22;3564;53.326;10.356;2022-09-13T07:08:58;18.80;99.90
7046;DHT22;3564;53.326;10.356;2022-09-13T07:11:25;18.90;99.90
7046;DHT22;3564;53.326;10.356;2022-09-13T07:13:53;19.00;99.90
7046;DHT22;3564;53.326;10.356;2022-09-13T07:16:22;18.90;99.90
7046;DHT22;3564;53.326;10.356;2022-09-13T07:18:56;19.00;99.90
7046;DHT22;3564;53.326;10.356;2022-09-13T07:21:24;19.00;99.90
7046;DHT22;3564;53.326;10.356;2022-09-13T07:23:51;19.10;99.90
7046;DHT22;3564;53.326;10.356;2022-09-13T07:26:17;19.00;99.90
7046;DHT22;3564;53.326;10.356;2022-09-13T07:28:45;19.00;99.90
7046;DHT22;3564;53.326;10.356;2022-09-13T07:31:17;19.00;99.90
7046;DHT22;3564;53.326;10.356;2022-09-13T07:33:45;19.10;99.90
7046;DHT22;3564;53.326;10.356;2022-09-13T07:36:12;19.20;99.90
7046;DHT22;3564;53.326;10.356;2022-09-13T07:38:39;19.10;99.90
7046;DHT22;3564;53.326;10.356;2022-09-13T07:41:06;19.10;99.90
7046;DHT22;3564;53.326;10.356;2022-09-13T07:43:33;19.20;99.90
7046;DHT22;3564;53.326;10.356;2022-09-13T07:46:04;19.30;99.90
7046;DHT22;3564;53.326;10.356;2022-09-13T07:48:32;19.50;99.90
7046;DHT22;3564;53.326;10.356;2022-09-13T07:51:13;19.60;99.90
7046;DHT22;3564;53.326;10.356;2022-09-13T07:53:40;19.70;99.90
7046;DHT22;3564;53.326;10.356;2022-09-13T07:56:15;19.70;99.90
7046;DHT22;3564;53.326;10.356;2022-09-13T07:58:42;19.70;99.90
7046;DHT22;3564;53.326;10.356;2022-09-13T08:01:15;19.80;99.90
7046;DHT22;3564;53.326;10.356;2022-09-13T08:03:41;19.70;99.90
7046;DHT22;3564;53.326;10.356;2022-09-13T08:06:07;19.80;99.90
7046;DHT22;3564;53.326;10.356;2022-09-13T08:08:34;19.80;99.90
7046;DHT22;3564;53.326;10.356;2022-09-13T08:11:02;19.90;99.90
7046;DHT22;3564;53.326;10.356;2022-09-13T08:13:29;19.90;99.90
7046;DHT22;3564;53.326;10.356;2022-09-13T08:15:56;20.00;99.90
7046;DHT22;3564;53.326;10.356;2022-09-13T08:18:25;20.10;99.90
7046;DHT22;3564;53.326;10.356;2022-09-13T08:20:50;20.20;99.90
7046;DHT22;3564;53.326;10.356;2022-09-13T08:23:19;20.20;99.90
7046;DHT22;3564;53.326;10.356;2022-09-13T08:25:45;20.20;99.90
7046;DHT22;3564;53.326;10.356;2022-09-13T08:28:17;20.20;99.90
7046;DHT22;3564;53.326;10.356;2022-09-13T08:30:45;20.20;99.90
7046;DHT22;3564;53.326;10.356;2022-09-13T08:33:14;20.20;99.90
7046;DHT22;3564;53.326;10.356;2022-09-13T08:35:40;20.20;99.90
7046;DHT22;3564;53.326;10.356;2022-09-13T08:38:06;20.20;99.90
7046;DHT22;3564;53.326;10.356;2022-09-13T08:40:39;20.30;99.90
7046;DHT22;3564;53.326;10.356;2022-09-13T08:46:09;20.50;99.90
7046;DHT22;3564;53.326;10.356;2022-09-13T08:48:40;20.50;99.90
7046;DHT22;3564;53.326;10.356;2022-09-13T08:53:54;20.50;99.90
7046;DHT22;3564;53.326;10.356;2022-09-13T08:59:51;20.60;99.90
7046;DHT22;3564;53.326;10.356;2022-09-13T09:02:39;20.70;99.90
7046;DHT22;3564;53.326;10.356;2022-09-13T09:05:18;20.70;99.90
7046;DHT22;3564;53.326;10.356;2022-09-13T09:07:55;20.70;99.90
7046;DHT22;3564;53.326;10.356;2022-09-13T09:10:31;20.70;99.90
7046;DHT22;3564;53.326;10.356;2022-09-13T09:13:08;20.70;99.90
7046;DHT22;3564;53.326;10.356;2022-09-13T09:15:46;20.60;99.90
7046;DHT22;3564;53.326;10.356;2022-09-13T09:18:32;20.60;99.90
7046;DHT22;3564;53.326;10.356;2022-09-13T09:21:02;20.60;99.90
7046;DHT22;3564;53.326;10.356;2022-09-13T09:26:18;20.70;99.90
7046;DHT22;3564;53.326;10.356;2022-09-13T09:39:51;21.00;99.90
7046;DHT22;3564;53.326;10.356;2022-09-13T09:42:20;21.10;99.90
7046;DHT22;3564;53.326;10.356;2022-09-13T09:44:50;21.10;99.90
7046;DHT22;3564;53.326;10.356;2022-09-13T09:47:19;21.10;99.90
7046;DHT22;3564;53.326;10.356;2022-09-13T09:49:50;21.10;99.90
7046;DHT22;3564;53.326;10.356;2022-09-13T09:52:43;21.20;99.90
7046;DHT22;3564;53.326;10.356;2022-09-13T09:58:01;21.10;99.90
7046;DHT22;3564;53.326;10.356;2022-09-13T10:00:31;21.00;99.90
7046;DHT22;3564;53.326;10.356;2022-09-13T10:03:24;21.20;99.90
7046;DHT22;3564;53.326;10.356;2022-09-13T10:06:03;21.20;99.90
7046;DHT22;3564;53.326;10.356;2022-09-13T10:08:32;21.20;99.90
7046;DHT22;3564;53.326;10.356;2022-09-13T10:11:00;21.20;99.90
7046;DHT22;3564;53.326;10.356;2022-09-13T10:13:27;21.20;99.90
7046;DHT22;3564;53.326;10.356;2022-09-13T10:16:01;21.20;99.90
7046;DHT22;3564;53.326;10.356;2022-09-13T10:18:32;21.20;99.90
7046;DHT22;3564;53.326;10.356;2022-09-13T10:23:27;21.20;99.90
7046;DHT22;3564;53.326;10.356;2022-09-13T10:28:54;21.20;99.90
7046;DHT22;3564;53.326;10.356;2022-09-13T10:31:27;21.30;99.90
7046;DHT22;3564;53.326;10.356;2022-09-13T10:34:22;21.30;99.90
7046;DHT22;3564;53.326;10.356;2022-09-13T10:39:35;21.50;99.90
7046;DHT22;3564;53.326;10.356;2022-09-13T10:42:06;21.50;99.90
7046;DHT22;3564;53.326;10.356;2022-09-13T10:44:44;21.60;99.90
7046;DHT22;3564;53.326;10.356;2022-09-13T10:47:12;21.60;99.90
7046;DHT22;3564;53.326;10.356;2022-09-13T10:49:47;21.70;99.90
7046;DHT22;3564;53.326;10.356;2022-09-13T10:54:54;21.90;99.90
7046;DHT22;3564;53.326;10.356;2022-09-13T10:59:58;22.10;99.90
7046;DHT22;3564;53.326;10.356;2022-09-13T11:05:44;22.30;99.90
7046;DHT22;3564;53.326;10.356;2022-09-13T11:12:25;22.50;99.90
7046;DHT22;3564;53.326;10.356;2022-09-13T11:23:24;23.00;99.70
7046;DHT22;3564;53.326;10.356;2022-09-13T11:37:20;22.60;95.00
7046;DHT22;3564;53.326;10.356;2022-09-13T11:40:09;22.60;95.00
7046;DHT22;3564;53.326;10.356;2022-09-13T11:48:56;22.50;95.30
7046;DHT22;3564;53.326;10.356;2022-09-13T11:57:20;22.70;95.90
7046;DHT22;3564;53.326;10.356;2022-09-13T12:00:00;22.80;95.20
7046;DHT22;3564;53.326;10.356;2022-09-13T12:02:54;22.80;94.50
7046;DHT22;3564;53.326;10.356;2022-09-13T12:05:23;22.90;93.00
7046;DHT22;3564;53.326;10.356;2022-09-13T12:07:59;22.80;92.40
7046;DHT22;3564;53.326;10.356;2022-09-13T12:10:37;22.80;92.20
7046;DHT22;3564;53.326;10.356;2022-09-13T12:13:08;22.80;92.40
7046;DHT22;3564;53.326;10.356;2022-09-13T12:15:40;22.70;92.30
7046;DHT22;3564;53.326;10.356;2022-09-13T12:20:50;22.60;91.80
7046;DHT22;3564;53.326;10.356;2022-09-13T12:26:04;22.50;92.70
7046;DHT22;3564;53.326;10.356;2022-09-13T12:28:39;22.50;91.70
7046;DHT22;3564;53.326;10.356;2022-09-13T12:31:11;22.50;91.60
7046;DHT22;3564;53.326;10.356;2022-09-13T12:33:39;22.60;92.00
7046;DHT22;3564;53.326;10.356;2022-09-13T12:36:15;22.50;92.30
7046;DHT22;3564;53.326;10.356;2022-09-13T12:44:42;22.60;91.80
7046;DHT22;3564;53.326;10.356;2022-09-13T12:47:36;22.70;92.40
7046;DHT22;3564;53.326;10.356;2022-09-13T12:53:29;22.80;91.80
7046;DHT22;3564;53.326;10.356;2022-09-13T13:01:32;22.80;90.60
7046;DHT22;3564;53.326;10.356;2022-09-13T13:04:03;22.90;90.60
7046;DHT22;3564;53.326;10.356;2022-09-13T13:06:46;22.90;90.20
7046;DHT22;3564;53.326;10.356;2022-09-13T13:09:36;22.90;90.00
7046;DHT22;3564;53.326;10.356;2022-09-13T13:12:24;22.90;90.50
7046;DHT22;3564;53.326;10.356;2022-09-13T13:14:51;22.90;90.70
7046;DHT22;3564;53.326;10.356;2022-09-13T13:17:48;22.90;90.20
7046;DHT22;3564;53.326;10.356;2022-09-13T13:20:44;22.90;88.90
7046;DHT22;3564;53.326;10.356;2022-09-13T13:41:57;23.10;90.00
7046;DHT22;3564;53.326;10.356;2022-09-13T13:46:53;23.30;90.00
7046;DHT22;3564;53.326;10.356;2022-09-13T13:58:03;23.50;89.80
7046;DHT22;3564;53.326;10.356;2022-09-13T14:00:32;23.60;90.00
7046;DHT22;3564;53.326;10.356;2022-09-13T14:05:39;23.50;88.60
7046;DHT22;3564;53.326;10.356;2022-09-13T14:22:20;23.90;89.80
7046;DHT22;3564;53.326;10.356;2022-09-13T14:24:52;23.90;88.80
7046;DHT22;3564;53.326;10.356;2022-09-13T14:27:34;23.90;88.20
7046;DHT22;3564;53.326;10.356;2022-09-13T14:30:04;23.90;88.20
7046;DHT22;3564;53.326;10.356;2022-09-13T14:32:43;23.90;88.50
7046;DHT22;3564;53.326;10.356;2022-09-13T14:35:38;24.00;88.90
7046;DHT22;3564;53.326;10.356;2022-09-13T14:38:23;24.10;88.70
7046;DHT22;3564;53.326;10.356;2022-09-13T14:40:53;24.30;89.00
7046;DHT22;3564;53.326;10.356;2022-09-13T14:43:25;24.30;88.20
7046;DHT22;3564;53.326;10.356;2022-09-13T14:46:26;24.50;88.30
7046;DHT22;3564;53.326;10.356;2022-09-13T14:49:06;24.80;85.20
7046;DHT22;3564;53.326;10.356;2022-09-13T14:51:45;25.40;84.60
7046;DHT22;3564;53.326;10.356;2022-09-13T14:54:17;26.10;83.10
7046;DHT22;3564;53.326;10.356;2022-09-13T14:56:51;26.70;81.00
7046;DHT22;3564;53.326;10.356;2022-09-13T15:01:54;28.60;80.00
7046;DHT22;3564;53.326;10.356;2022-09-13T15:04:22;29.20;78.30
7046;DHT22;3564;53.326;10.356;2022-09-13T15:07:06;29.70;76.90
7046;DHT22;3564;53.326;10.356;2022-09-13T15:09:32;30.30;75.40
7046;DHT22;3564;53.326;10.356;2022-09-13T15:11:59;30.70;75.10
7046;DHT22;3564;53.326;10.356;2022-09-13T15:14:33;31.10;74.60
7046;DHT22;3564;53.326;10.356;2022-09-13T15:22:12;31.90;73.10
7046;DHT22;3564;53.326;10.356;2022-09-13T15:24:54;32.00;72.10
7046;DHT22;3564;53.326;10.356;2022-09-13T15:27:27;31.80;71.10
7046;DHT22;3564;53.326;10.356;2022-09-13T15:29:58;31.60;71.10
7046;DHT22;3564;53.326;10.356;2022-09-13T15:33:02;31.30;71.20
7046;DHT22;3564;53.326;10.356;2022-09-13T15:35:43;31.00;72.20
7046;DHT22;3564;53.326;10.356;2022-09-13T15:38:25;30.80;72.80
7046;DHT22;3564;53.326;10.356;2022-09-13T15:41:12;30.40;73.40
7046;DHT22;3564;53.326;10.356;2022-09-13T15:43:38;29.90;73.80
7046;DHT22;3564;53.326;10.356;2022-09-13T15:46:04;29.50;74.80
7046;DHT22;3564;53.326;10.356;2022-09-13T15:48:33;28.90;75.40
7046;DHT22;3564;53.326;10.356;2022-09-13T15:51:10;28.50;76.90
7046;DHT22;3564;53.326;10.356;2022-09-13T15:53:38;28.10;78.10
7046;DHT22;3564;53.326;10.356;2022-09-13T15:56:04;27.80;78.70
7046;DHT22;3564;53.326;10.356;2022-09-13T15:58:30;27.70;79.40
7046;DHT22;3564;53.326;10.356;2022-09-13T16:00:56;27.60;79.40
7046;DHT22;3564;53.326;10.356;2022-09-13T16:03:21;27.50;79.90
7046;DHT22;3564;53.326;10.356;2022-09-13T16:05:47;27.40;80.10
7046;DHT22;3564;53.326;10.356;2022-09-13T16:08:13;27.20;80.40
7046;DHT22;3564;53.326;10.356;2022-09-13T16:10:39;27.10;80.60
7046;DHT22;3564;53.326;10.356;2022-09-13T16:13:05;26.90;80.50
7046;DHT22;3564;53.326;10.356;2022-09-13T16:15:31;26.80;81.10
7046;DHT22;3564;53.326;10.356;2022-09-13T16:17:57;26.70;81.10
7046;DHT22;3564;53.326;10.356;2022-09-13T16:20:24;26.50;81.10
7046;DHT22;3564;53.326;10.356;2022-09-13T16:22:52;26.10;81.20
7046;DHT22;3564;53.326;10.356;2022-09-13T16:25:17;25.90;81.80
7046;DHT22;3564;53.326;10.356;2022-09-13T16:27:44;25.80;82.40
7046;DHT22;3564;53.326;10.356;2022-09-13T16:30:15;25.60;82.50
7046;DHT22;3564;53.326;10.356;2022-09-13T16:32:41;25.40;82.80
7046;DHT22;3564;53.326;10.356;2022-09-13T16:35:08;25.20;82.90
7046;DHT22;3564;53.326;10.356;2022-09-13T16:37:34;25.00;83.30
7046;DHT22;3564;53.326;10.356;2022-09-13T16:40:00;24.90;83.60
7046;DHT22;3564;53.326;10.356;2022-09-13T16:42:25;24.80;83.70
7046;DHT22;3564;53.326;10.356;2022-09-13T16:44:51;24.70;83.50
7046;DHT22;3564;53.326;10.356;2022-09-13T16:47:17;24.60;83.80
7046;DHT22;3564;53.326;10.356;2022-09-13T16:49:42;24.50;83.90
7046;DHT22;3564;53.326;10.356;2022-09-13T16:52:08;24.40;84.30
7046;DHT22;3564;53.326;10.356;2022-09-13T16:54:35;24.30;84.30
7046;DHT22;3564;53.326;10.356;2022-09-13T16:57:02;24.10;84.50
7046;DHT22;3564;53.326;10.356;2022-09-13T16:59:29;24.00;85.10
7046;DHT22;3564;53.326;10.356;2022-09-13T17:01:55;23.80;85.50
7046;DHT22;3564;53.326;10.356;2022-09-13T17:04:22;23.70;85.70
7046;DHT22;3564;53.326;10.356;2022-09-13T17:06:47;23.60;86.10
7046;DHT22;3564;53.326;10.356;2022-09-13T17:09:13;23.30;86.60
7046;DHT22;3564;53.326;10.356;2022-09-13T17:11:40;23.10;87.30
7046;DHT22;3564;53.326;10.356;2022-09-13T17:14:08;23.00;87.60
7046;DHT22;3564;53.326;10.356;2022-09-13T17:16:37;22.80;87.60
7046;DHT22;3564;53.326;10.356;2022-09-13T17:19:06;22.70;88.40
7046;DHT22;3564;53.326;10.356;2022-09-13T17:21:32;22.70;88.30
7046;DHT22;3564;53.326;10.356;2022-09-13T17:23:59;22.60;88.60
7046;DHT22;3564;53.326;10.356;2022-09-13T17:26:24;22.60;88.60
7046;DHT22;3564;53.326;10.356;2022-09-13T17:28:50;22.50;88.70
7046;DHT22;3564;53.326;10.356;2022-09-13T17:31:17;22.40;88.80
7046;DHT22;3564;53.326;10.356;2022-09-13T17:33:43;22.30;89.60
7046;DHT22;3564;53.326;10.356;2022-09-13T17:36:10;22.30;89.10
7046;DHT22;3564;53.326;10.356;2022-09-13T17:38:37;22.30;89.50
7046;DHT22;3564;53.326;10.356;2022-09-13T17:41:17;22.20;89.60
7046;DHT22;3564;53.326;10.356;2022-09-13T17:43:44;22.20;89.60
7046;DHT22;3564;53.326;10.356;2022-09-13T17:46:25;22.10;89.60
7046;DHT22;3564;53.326;10.356;2022-09-13T17:48:53;22.10;89.70
7046;DHT22;3564;53.326;10.356;2022-09-13T17:51:27;22.00;89.80
7046;DHT22;3564;53.326;10.356;2022-09-13T17:54:13;22.00;90.00
7046;DHT22;3564;53.326;10.356;2022-09-13T17:56:42;22.00;90.10
7046;DHT22;3564;53.326;10.356;2022-09-13T17:59:12;21.90;90.20
7046;DHT22;3564;53.326;10.356;2022-09-13T18:01:41;21.90;90.30
7046;DHT22;3564;53.326;10.356;2022-09-13T18:04:07;21.90;90.30
7046;DHT22;3564;53.326;10.356;2022-09-13T18:06:35;21.80;90.40
7046;DHT22;3564;53.326;10.356;2022-09-13T18:09:01;21.80;90.60
7046;DHT22;3564;53.326;10.356;2022-09-13T18:11:27;21.80;90.70
7046;DHT22;3564;53.326;10.356;2022-09-13T18:13:52;21.70;90.80
7046;DHT22;3564;53.326;10.356;2022-09-13T18:16:20;21.70;90.90
7046;DHT22;3564;53.326;10.356;2022-09-13T18:18:48;21.70;91.00
7046;DHT22;3564;53.326;10.356;2022-09-13T18:21:15;21.70;91.10
7046;DHT22;3564;53.326;10.356;2022-09-13T18:23:46;21.60;91.20
7046;DHT22;3564;53.326;10.356;2022-09-13T18:26:14;21.60;91.20
7046;DHT22;3564;53.326;10.356;2022-09-13T18:28:41;21.50;91.30
7046;DHT22;3564;53.326;10.356;2022-09-13T18:31:16;21.50;91.30
7046;DHT22;3564;53.326;10.356;2022-09-13T18:33:43;21.40;91.50
7046;DHT22;3564;53.326;10.356;2022-09-13T18:36:12;21.30;91.50
7046;DHT22;3564;53.326;10.356;2022-09-13T18:39:00;21.20;91.50
7046;DHT22;3564;53.326;10.356;2022-09-13T18:41:37;21.10;91.70
7046;DHT22;3564;53.326;10.356;2022-09-13T18:44:09;21.10;91.50
7046;DHT22;3564;53.326;10.356;2022-09-13T18:46:40;21.00;91.20
7046;DHT22;3564;53.326;10.356;2022-09-13T18:49:07;20.90;91.20
7046;DHT22;3564;53.326;10.356;2022-09-13T18:51:34;20.90;91.30
7046;DHT22;3564;53.326;10.356;2022-09-13T18:54:04;20.80;91.30
7046;DHT22;3564;53.326;10.356;2022-09-13T18:56:30;20.70;91.40
7046;DHT22;3564;53.326;10.356;2022-09-13T18:59:02;20.70;91.50
7046;DHT22;3564;53.326;10.356;2022-09-13T19:01:30;20.70;91.70
7046;DHT22;3564;53.326;10.356;2022-09-13T19:04:10;20.70;91.70
7046;DHT22;3564;53.326;10.356;2022-09-13T19:06:49;20.60;91.80
7046;DHT22;3564;53.326;10.356;2022-09-13T19:09:26;20.60;91.90
7046;DHT22;3564;53.326;10.356;2022-09-13T19:11:57;20.60;91.90
7046;DHT22;3564;53.326;10.356;2022-09-13T19:14:27;20.40;92.00
7046;DHT22;3564;53.326;10.356;2022-09-13T19:16:56;20.40;92.10
7046;DHT22;3564;53.326;10.356;2022-09-13T19:19:29;20.40;92.20
7046;DHT22;3564;53.326;10.356;2022-09-13T19:21:56;20.40;92.20
7046;DHT22;3564;53.326;10.356;2022-09-13T19:24:24;20.30;92.20
7046;DHT22;3564;53.326;10.356;2022-09-13T19:26:52;20.20;92.30
7046;DHT22;3564;53.326;10.356;2022-09-13T19:29:20;20.10;92.50
7046;DHT22;3564;53.326;10.356;2022-09-13T19:31:50;20.10;92.70
7046;DHT22;3564;53.326;10.356;2022-09-13T19:34:20;20.10;92.80
7046;DHT22;3564;53.326;10.356;2022-09-13T19:36:51;20.10;92.90
7046;DHT22;3564;53.326;10.356;2022-09-13T19:39:27;20.10;92.90
7046;DHT22;3564;53.326;10.356;2022-09-13T19:41:59;20.00;93.00
7046;DHT22;3564;53.326;10.356;2022-09-13T19:44:36;19.90;93.10
7046;DHT22;3564;53.326;10.356;2022-09-13T19:47:02;19.80;93.30